Time;durP1;ratioP1;P1;durP2;ratioP2;P2;SDS_P1;SDS_P2;PMS_P1;PMS_P2;Temp;Humidity;BMP_temperature;BMP_pressure;BME280_temperature;BME280_humidity;BME280_pressure;Samples;Min_cycle;Max_cycle;Signal;HPM_P1;HPM_P2
2023/02/12 00:01:14;;;;;;;;;;;;;;;;;;5089964;28;1205;-54
2023/02/12 00:03:41;;;;;;;;;;;;;;;;;;5079330;28;1967;-52
2023/02/12 00:06:09;;;;;;;;;;;;;;;;;;5088444;28;1178;-48
2023/02/12 00:08:42;;;;;;;;;;;;;;;;;;5083523;28;948;-50
2023/02/12 00:11:09;;;;;;;;;;;;;;;;;;5091510;28;934;-47
2023/02/12 00:13:36;;;;;;;;;;;;;;;;;;5084755;28;916;-44
2023/02/12 00:16:05;;;;;;;;;;;;;;;;;;5072391;28;941;-48
2023/02/12 00:18:32;;;;;;;;;;;;;;;;;;5088280;28;1052;-50
2023/02/12 00:21:00;;;;;;;;;;;;;;;;;;5079303;28;1208;-52
2023/02/12 00:23:27;;;;;;;;;;;;;;;;;;5076801;28;1912;-48
2023/02/12 00:25:54;;;;;;;;;;;;;;;;;;5073261;28;993;-50
2023/02/12 00:28:22;;;;;;;;;;;;;;;;;;5083661;28;1443;-48
2023/02/12 00:30:49;;;;;;;;;;;;;;;;;;5078310;28;1100;-49
2023/02/12 00:33:16;;;;;;;;;;;;;;;;;;5086755;28;1203;-50
2023/02/12 00:35:44;;;;;;;;;;;;;;;;;;5078785;28;1323;-49
2023/02/12 00:38:11;;;;;;;;;;;;;;;;;;5082980;28;1223;-50
2023/02/12 00:40:38;;;;;;;;;;;;;;;;;;5080769;28;1198;-44
2023/02/12 00:43:06;;;;;;;;;;;;;;;;;;5074859;28;2019;-50
2023/02/12 00:45:33;;;;;;;;;;;;;;;;;;5079465;28;1199;-49
2023/02/12 00:48:00;;;;;;;;;;;;;;;;;;5077851;28;1206;-51
2023/02/12 00:50:27;;;;;;;;;;;;;;;;;;5076012;28;1505;-52
2023/02/12 00:52:59;;;;;;;;;;;;;;;;;;5078721;28;1057;-52
2023/02/12 00:55:27;;;;;;;;;;;;;;;;;;5074732;28;1331;-49
2023/02/12 00:57:54;;;;;;;;;;;;;;;;;;5074510;28;1405;-49
2023/02/12 01:00:21;;;;;;;;;;;;;;;;;;5079882;28;1671;-49
2023/02/12 01:02:49;;;;;;;;;;;;;;;;;;5082805;28;1914;-47
2023/02/12 01:05:16;;;;;;;;;;;;;;;;;;5082789;28;1206;-49
2023/02/12 01:07:43;;;;;;;;;;;;;;;;;;5072497;28;973;-51
2023/02/12 01:10:10;;;;;;;;;;;;;;;;;;5080264;28;1129;-46
2023/02/12 01:12:37;;;;;;;;;;;;;;;;;;5084457;28;917;-49
2023/02/12 01:15:05;;;;;;;;;;;;;;;;;;5078640;28;1120;-49
2023/02/12 01:17:33;;;;;;;;;;;;;;;;;;5083912;28;1093;-48
2023/02/12 01:20:00;;;;;;;;;;;;;;;;;;5075338;28;905;-49
2023/02/12 01:22:27;;;;;;;;;;;;;;;;;;5074748;28;1975;-53
2023/02/12 01:24:54;;;;;;;;;;;;;;;;;;5086923;28;1078;-49
2023/02/12 01:27:22;;;;;;;;;;;;;;;;;;5072146;28;1274;-51
2023/02/12 01:29:49;;;;;;;;;;;;;;;;;;5084180;28;1104;-48
2023/02/12 01:32:16;;;;;;;;;;;;;;;;;;5078943;28;1207;-50
2023/02/12 01:34:43;;;;;;;;;;;;;;;;;;5080735;28;1667;-49
2023/02/12 01:37:11;;;;;;;;;;;;;;;;;;5070937;28;1169;-42
2023/02/12 01:39:44;;;;;;;;;;;;;;;;;;5077044;28;1162;-49
2023/02/12 01:42:14;;;;;;;;;;;;;;;;;;5071018;28;1979;-47
2023/02/12 01:45:04;;;;;;;;;;;;;;;;;;5072545;28;1744;-49
2023/02/12 01:47:34;;;;;;;;;;;;;;;;;;5083755;28;2018;-50
2023/02/12 01:50:02;;;;;;;;;;;;;;;;;;5084929;28;1085;-49
2023/02/12 01:52:30;;;;;;;;;;;;;;;;;;5085435;28;1258;-53
2023/02/12 01:55:03;;;;;;;;;;;;;;;;;;5079406;28;1022;-48
2023/02/12 01:57:32;;;;;;;;;;;;;;;;;;5079353;28;990;-49
2023/02/12 02:00:00;;;;;;;;;;;;;;;;;;5072689;28;1208;-49
2023/02/12 02:02:40;;;;;;;;;;;;;;;;;;5086302;28;1906;-47
2023/02/12 02:05:08;;;;;;;;;;;;;;;;;;5081289;28;1057;-52
2023/02/12 02:07:35;;;;;;;;;;;;;;;;;;5073608;28;1396;-50
2023/02/12 02:10:03;;;;;;;;;;;;;;;;;;5084515;28;1153;-49
2023/02/12 02:15:16;;;;;;;;;;;;;;;;;;5076871;28;1073;-53
2023/02/12 02:18:12;;;;;;;;;;;;;;;;;;5087571;28;1247;-49
2023/02/12 02:20:58;;;;;;;;;;;;;;;;;;5081321;28;1457;-48
2023/02/12 02:23:26;;;;;;;;;;;;;;;;;;5086797;28;1934;-49
2023/02/12 02:26:06;;;;;;;;;;;;;;;;;;5084341;28;950;-51
2023/02/12 02:28:51;;;;;;;;;;;;;;;;;;5084382;28;1406;-51
2023/02/12 02:31:19;;;;;;;;;;;;;;;;;;5081025;28;1231;-40
2023/02/12 02:34:08;;;;;;;;;;;;;;;;;;5075028;28;1396;-45
2023/02/12 02:36:46;;;;;;;;;;;;;;;;;;5072863;28;1322;-49
2023/02/12 02:39:44;;;;;;;;;;;;;;;;;;5071534;28;1117;-48
2023/02/12 02:42:30;;;;;;;;;;;;;;;;;;5088337;28;1915;-48
2023/02/12 02:45:10;;;;;;;;;;;;;;;;;;5070510;28;1302;-50
2023/02/12 02:47:57;;;;;;;;;;;;;;;;;;5070430;28;963;-50
2023/02/12 02:50:26;;;;;;;;;;;;;;;;;;5068921;28;1760;-49
2023/02/12 02:52:56;;;;;;;;;;;;;;;;;;5070472;28;999;-49
2023/02/12 02:55:26;;;;;;;;;;;;;;;;;;5070498;28;1070;-48
2023/02/12 02:57:56;;;;;;;;;;;;;;;;;;5070426;28;1207;-51
2023/02/12 03:00:30;;;;;;;;;;;;;;;;;;5073404;28;924;-51
2023/02/12 03:03:01;;;;;;;;;;;;;;;;;;5073705;28;1920;-49
2023/02/12 03:05:34;;;;;;;;;;;;;;;;;;5073899;28;1022;-50
2023/02/12 03:08:24;;;;;;;;;;;;;;;;;;5073898;28;957;-49
2023/02/12 03:11:00;;;;;;;;;;;;;;;;;;5073792;28;982;-52
2023/02/12 03:13:27;;;;;;;;;;;;;;;;;;5084801;28;1142;-52
2023/02/12 03:15:58;;;;;;;;;;;;;;;;;;5092156;28;1677;-50
2023/02/12 03:18:39;;;;;;;;;;;;;;;;;;5092062;28;875;-50
2023/02/12 03:21:10;;;;;;;;;;;;;;;;;;5093892;28;1246;-50
2023/02/12 03:23:48;;;;;;;;;;;;;;;;;;5093306;28;1914;-47
2023/02/12 03:26:24;;;;;;;;;;;;;;;;;;5094003;28;1070;-47
2023/02/12 03:28:51;;;;;;;;;;;;;;;;;;5093652;28;1114;-49
2023/02/12 03:31:18;;;;;;;;;;;;;;;;;;5093832;28;914;-43
2023/02/12 03:33:52;;;;;;;;;;;;;;;;;;5093517;28;1273;-49
2023/02/12 03:36:27;;;;;;;;;;;;;;;;;;5093436;28;950;-43
2023/02/12 03:38:56;;;;;;;;;;;;;;;;;;5093414;28;1243;-48
2023/02/12 03:41:26;;;;;;;;;;;;;;;;;;5093582;28;1139;-49
2023/02/12 03:44:12;;;;;;;;;;;;;;;;;;5093269;28;1914;-47
2023/02/12 03:46:41;;;;;;;;;;;;;;;;;;5093126;28;1083;-44
2023/02/12 03:49:12;;;;;;;;;;;;;;;;;;5093071;28;1068;-51
2023/02/12 03:51:40;;;;;;;;;;;;;;;;;;5093171;28;957;-50
2023/02/12 03:54:09;;;;;;;;;;;;;;;;;;5093037;28;926;-51
2023/02/12 03:56:39;;;;;;;;;;;;;;;;;;5093285;28;1071;-48
2023/02/12 03:59:06;;;;;;;;;;;;;;;;;;5092858;28;1006;-49
2023/02/12 04:01:34;;;;;;;;;;;;;;;;;;5093291;28;1072;-47
2023/02/12 04:04:03;;;;;;;;;;;;;;;;;;5076285;28;1959;-49
2023/02/12 04:06:30;;;;;;;;;;;;;;;;;;5072785;28;1377;-47
2023/02/12 04:09:00;;;;;;;;;;;;;;;;;;5072936;28;1098;-47
2023/02/12 04:11:35;;;;;;;;;;;;;;;;;;5072558;28;1186;-48
2023/02/12 04:14:03;;;;;;;;;;;;;;;;;;5072668;28;1000;-47
2023/02/12 04:16:53;;;;;;;;;;;;;;;;;;5072413;28;957;-49
2023/02/12 04:19:25;;;;;;;;;;;;;;;;;;5072724;28;1199;-50
2023/02/12 04:22:01;;;;;;;;;;;;;;;;;;5072411;28;1110;-45
2023/02/12 04:24:48;;;;;;;;;;;;;;;;;;5072229;28;1975;-51
2023/02/12 04:27:25;;;;;;;;;;;;;;;;;;5072241;28;2158;-48
2023/02/12 04:30:03;;;;;;;;;;;;;;;;;;5072448;28;1079;-47
2023/02/12 04:32:33;;;;;;;;;;;;;;;;;;5072085;28;905;-52
2023/02/12 04:35:07;;;;;;;;;;;;;;;;;;5084180;28;1365;-53
2023/02/12 04:37:34;;;;;;;;;;;;;;;;;;5073108;28;911;-49
2023/02/12 04:40:03;;;;;;;;;;;;;;;;;;5074288;28;1302;-49
2023/02/12 04:42:30;;;;;;;;;;;;;;;;;;5075829;28;1164;-52
2023/02/12 04:44:57;;;;;;;;;;;;;;;;;;5078988;28;1938;-50
2023/02/12 04:47:24;;;;;;;;;;;;;;;;;;5086393;28;1230;-42
2023/02/12 04:49:52;;;;;;;;;;;;;;;;;;5082658;28;1073;-44
2023/02/12 04:52:19;;;;;;;;;;;;;;;;;;5082929;28;1224;-48
2023/02/12 04:54:46;;;;;;;;;;;;;;;;;;5078735;28;941;-51
2023/02/12 04:57:13;;;;;;;;;;;;;;;;;;5083631;28;1380;-44
2023/02/12 04:59:40;;;;;;;;;;;;;;;;;;5077009;28;987;-46
2023/02/12 05:02:08;;;;;;;;;;;;;;;;;;5084762;28;1292;-53
2023/02/12 05:04:35;;;;;;;;;;;;;;;;;;5076382;28;1982;-50
2023/02/12 05:07:02;;;;;;;;;;;;;;;;;;5083681;28;1209;-48
2023/02/12 05:09:29;;;;;;;;;;;;;;;;;;5081302;28;906;-49
2023/02/12 05:11:56;;;;;;;;;;;;;;;;;;5082654;28;1043;-49
2023/02/12 05:14:24;;;;;;;;;;;;;;;;;;5079259;28;1143;-47
2023/02/12 05:16:51;;;;;;;;;;;;;;;;;;5086798;28;1366;-52
2023/02/12 05:19:18;;;;;;;;;;;;;;;;;;5079430;28;1066;-45
2023/02/12 05:21:48;;;;;;;;;;;;;;;;;;5080136;28;979;-51
2023/02/12 05:24:16;;;;;;;;;;;;;;;;;;5078970;28;1972;-51
2023/02/12 05:26:43;;;;;;;;;;;;;;;;;;5080809;28;1070;-44
2023/02/12 05:29:11;;;;;;;;;;;;;;;;;;5075833;28;1521;-42
2023/02/12 05:31:38;;;;;;;;;;;;;;;;;;5081835;28;1023;-43
2023/02/12 05:34:06;;;;;;;;;;;;;;;;;;5071211;28;1238;-45
2023/02/12 05:36:33;;;;;;;;;;;;;;;;;;5071346;28;936;-46
2023/02/12 05:39:00;;;;;;;;;;;;;;;;;;5071159;28;1146;-43
2023/02/12 05:41:27;;;;;;;;;;;;;;;;;;5071133;28;928;-45
2023/02/12 05:43:55;;;;;;;;;;;;;;;;;;5071407;28;1906;-46
2023/02/12 05:46:22;;;;;;;;;;;;;;;;;;5071312;28;1436;-41
2023/02/12 05:48:49;;;;;;;;;;;;;;;;;;5072066;28;1031;-42
2023/02/12 05:51:18;;;;;;;;;;;;;;;;;;5091361;28;1182;-42
2023/02/12 05:53:47;;;;;;;;;;;;;;;;;;5091080;28;1019;-49
2023/02/12 05:56:15;;;;;;;;;;;;;;;;;;5091121;28;1158;-48
2023/02/12 05:58:44;;;;;;;;;;;;;;;;;;5091375;28;1063;-44
2023/02/12 06:01:21;;;;;;;;;;;;;;;;;;5074743;28;980;-43
2023/02/12 06:03:49;;;;;;;;;;;;;;;;;;5071060;28;1981;-44
2023/02/12 06:06:16;;;;;;;;;;;;;;;;;;5070904;28;1076;-44
2023/02/12 06:08:46;;;;;;;;;;;;;;;;;;5070944;28;1103;-47
2023/02/12 06:11:14;;;;;;;;;;;;;;;;;;5070863;28;1010;-48
2023/02/12 06:13:42;;;;;;;;;;;;;;;;;;5070940;28;1004;-45
2023/02/12 06:16:18;;;;;;;;;;;;;;;;;;5070974;28;1121;-48
2023/02/12 06:18:46;;;;;;;;;;;;;;;;;;5070718;28;1011;-44
2023/02/12 06:21:13;;;;;;;;;;;;;;;;;;5070762;28;1131;-47
2023/02/12 06:23:40;;;;;;;;;;;;;;;;;;5070628;28;1959;-47
2023/02/12 06:26:07;;;;;;;;;;;;;;;;;;5070464;28;1061;-44
2023/02/12 06:28:34;;;;;;;;;;;;;;;;;;5070731;28;1024;-39
2023/02/12 06:31:01;;;;;;;;;;;;;;;;;;5070642;28;916;-49
2023/02/12 06:33:29;;;;;;;;;;;;;;;;;;5070984;28;923;-44
2023/02/12 06:35:56;;;;;;;;;;;;;;;;;;5073070;28;2370;-42
2023/02/12 06:38:24;;;;;;;;;;;;;;;;;;5074482;28;1016;-42
2023/02/12 06:40:51;;;;;;;;;;;;;;;;;;5074479;28;1129;-43
2023/02/12 06:43:18;;;;;;;;;;;;;;;;;;5072854;28;2196;-50
2023/02/12 06:45:45;;;;;;;;;;;;;;;;;;5074136;28;926;-45
2023/02/12 06:48:12;;;;;;;;;;;;;;;;;;5074190;28;1235;-44
2023/02/12 06:50:39;;;;;;;;;;;;;;;;;;5074275;28;1078;-43
2023/02/12 06:53:06;;;;;;;;;;;;;;;;;;5074284;28;1094;-45
2023/02/12 06:55:34;;;;;;;;;;;;;;;;;;5073966;28;1222;-46
2023/02/12 06:58:01;;;;;;;;;;;;;;;;;;5074284;28;1185;-48
2023/02/12 07:00:28;;;;;;;;;;;;;;;;;;5073877;28;1081;-43
2023/02/12 07:02:55;;;;;;;;;;;;;;;;;;5073898;28;1340;-44
2023/02/12 07:05:22;;;;;;;;;;;;;;;;;;5073902;28;2002;-44
2023/02/12 07:07:49;;;;;;;;;;;;;;;;;;5072587;28;1205;-43
2023/02/12 07:10:17;;;;;;;;;;;;;;;;;;5073973;28;1169;-47
2023/02/12 07:12:44;;;;;;;;;;;;;;;;;;5073720;28;1266;-44
2023/02/12 07:15:11;;;;;;;;;;;;;;;;;;5073875;28;1067;-43
2023/02/12 07:17:39;;;;;;;;;;;;;;;;;;5073774;28;1141;-49
2023/02/12 07:20:06;;;;;;;;;;;;;;;;;;5073683;28;1188;-43
2023/02/12 07:22:36;;;;;;;;;;;;;;;;;;5073787;28;1178;-43
2023/02/12 07:25:04;;;;;;;;;;;;;;;;;;5073562;28;1973;-40
2023/02/12 07:27:34;;;;;;;;;;;;;;;;;;5073770;28;1104;-49
2023/02/12 07:30:02;;;;;;;;;;;;;;;;;;5073730;28;1170;-49
2023/02/12 07:32:31;;;;;;;;;;;;;;;;;;5073678;28;944;-42
2023/02/12 07:34:58;;;;;;;;;;;;;;;;;;5073241;28;1231;-42
2023/02/12 07:37:25;;;;;;;;;;;;;;;;;;5073342;28;1106;-43
2023/02/12 07:39:53;;;;;;;;;;;;;;;;;;5073060;28;1114;-45
2023/02/12 07:42:20;;;;;;;;;;;;;;;;;;5079901;28;1127;-48
2023/02/12 07:44:49;;;;;;;;;;;;;;;;;;5091552;28;1912;-46
2023/02/12 07:47:18;;;;;;;;;;;;;;;;;;5093300;28;1290;-41
2023/02/12 07:49:45;;;;;;;;;;;;;;;;;;5093303;28;1298;-47
2023/02/12 07:52:13;;;;;;;;;;;;;;;;;;5093406;28;1006;-48
2023/02/12 07:54:40;;;;;;;;;;;;;;;;;;5093107;28;972;-46
2023/02/12 07:57:07;;;;;;;;;;;;;;;;;;5093271;28;1085;-45
2023/02/12 07:59:34;;;;;;;;;;;;;;;;;;5093286;28;1327;-46
2023/02/12 08:02:01;;;;;;;;;;;;;;;;;;5093379;28;1140;-48
2023/02/12 08:04:29;;;;;;;;;;;;;;;;;;5072751;28;1902;-48
2023/02/12 08:06:56;;;;;;;;;;;;;;;;;;5072396;28;1024;-41
2023/02/12 08:09:24;;;;;;;;;;;;;;;;;;5072697;28;1221;-46
2023/02/12 08:11:52;;;;;;;;;;;;;;;;;;5072644;28;1224;-48
2023/02/12 08:14:20;;;;;;;;;;;;;;;;;;5072786;28;1109;-44
2023/02/12 08:16:48;;;;;;;;;;;;;;;;;;5072566;28;1180;-48
2023/02/12 08:19:15;;;;;;;;;;;;;;;;;;5072529;28;1067;-46
2023/02/12 08:21:51;;;;;;;;;;;;;;;;;;5072459;28;1068;-47
2023/02/12 08:24:18;;;;;;;;;;;;;;;;;;5072253;28;1936;-42
2023/02/12 08:26:45;;;;;;;;;;;;;;;;;;5072554;28;1052;-47
2023/02/12 08:29:14;;;;;;;;;;;;;;;;;;5072269;28;1053;-48
2023/02/12 08:31:42;;;;;;;;;;;;;;;;;;5072144;28;983;-43
2023/02/12 08:34:18;;;;;;;;;;;;;;;;;;5071797;28;1346;-44
2023/02/12 08:36:46;;;;;;;;;;;;;;;;;;5072279;28;1000;-45
2023/02/12 08:39:14;;;;;;;;;;;;;;;;;;5071940;28;1031;-49
2023/02/12 08:41:41;;;;;;;;;;;;;;;;;;5072224;28;896;-44
2023/02/12 08:44:09;;;;;;;;;;;;;;;;;;5072148;28;1911;-41
2023/02/12 08:46:37;;;;;;;;;;;;;;;;;;5071982;28;1096;-46
2023/02/12 08:49:10;;;;;;;;;;;;;;;;;;5072328;28;1225;-46
2023/02/12 08:51:38;;;;;;;;;;;;;;;;;;5072049;28;1071;-46
2023/02/12 08:54:09;;;;;;;;;;;;;;;;;;5072045;28;963;-41
2023/02/12 08:56:36;;;;;;;;;;;;;;;;;;5071290;28;1085;-42
2023/02/12 08:59:04;;;;;;;;;;;;;;;;;;5078353;28;1218;-47
2023/02/12 09:01:33;;;;;;;;;;;;;;;;;;5092076;28;952;-44
2023/02/12 09:04:00;;;;;;;;;;;;;;;;;;5091749;28;1984;-45
2023/02/12 09:06:28;;;;;;;;;;;;;;;;;;5091825;28;1193;-41
2023/02/12 09:08:55;;;;;;;;;;;;;;;;;;5091771;28;1201;-40
2023/02/12 09:11:29;;;;;;;;;;;;;;;;;;5091869;28;1367;-43
2023/02/12 09:14:00;;;;;;;;;;;;;;;;;;5091545;28;1154;-45
2023/02/12 09:16:28;;;;;;;;;;;;;;;;;;5091689;28;998;-40
2023/02/12 09:18:56;;;;;;;;;;;;;;;;;;5091746;28;1052;-41
2023/02/12 09:21:23;;;;;;;;;;;;;;;;;;5091768;28;1274;-43
2023/02/12 09:23:50;;;;;;;;;;;;;;;;;;5091506;28;1061;-40
2023/02/12 09:26:21;;;;;;;;;;;;;;;;;;5091312;28;1906;-45
2023/02/12 09:28:49;;;;;;;;;;;;;;;;;;5091499;28;1176;-43
2023/02/12 09:31:26;;;;;;;;;;;;;;;;;;5091445;28;1028;-49
2023/02/12 09:33:54;;;;;;;;;;;;;;;;;;5091399;28;1063;-43
2023/02/12 09:36:21;;;;;;;;;;;;;;;;;;5073486;28;1071;-42
2023/02/12 09:38:49;;;;;;;;;;;;;;;;;;5070853;28;1052;-45
2023/02/12 09:41:34;;;;;;;;;;;;;;;;;;5071211;28;939;-44
2023/02/12 09:44:21;;;;;;;;;;;;;;;;;;5070967;28;1978;-45
2023/02/12 09:46:52;;;;;;;;;;;;;;;;;;5071059;28;908;-45
2023/02/12 09:49:22;;;;;;;;;;;;;;;;;;5070988;28;1026;-45
2023/02/12 09:51:52;;;;;;;;;;;;;;;;;;5070966;28;1360;-42
2023/02/12 09:54:22;;;;;;;;;;;;;;;;;;5071186;28;1056;-42
2023/02/12 09:56:52;;;;;;;;;;;;;;;;;;5070704;28;911;-43
2023/02/12 09:59:28;;;;;;;;;;;;;;;;;;5071179;28;961;-46
2023/02/12 10:01:56;;;;;;;;;;;;;;;;;;5070610;28;1461;-44
2023/02/12 10:04:24;;;;;;;;;;;;;;;;;;5090513;28;1935;-44
2023/02/12 10:07:03;;;;;;;;;;;;;;;;;;5091024;28;989;-43
2023/02/12 10:09:39;;;;;;;;;;;;;;;;;;5094592;28;1060;-47
2023/02/12 10:12:11;;;;;;;;;;;;;;;;;;5094718;28;1315;-48
2023/02/12 10:14:50;;;;;;;;;;;;;;;;;;5095093;28;991;-45
2023/02/12 10:17:17;;;;;;;;;;;;;;;;;;5094968;28;1057;-46
2023/02/12 10:19:59;;;;;;;;;;;;;;;;;;5095272;28;1066;-40
2023/02/12 10:22:37;;;;;;;;;;;;;;;;;;5094893;28;1128;-46
2023/02/12 10:25:35;;;;;;;;;;;;;;;;;;5094787;28;1914;-51
2023/02/12 10:28:15;;;;;;;;;;;;;;;;;;5093556;28;1676;-49
2023/02/12 10:31:12;;;;;;;;;;;;;;;;;;5094888;28;908;-50
2023/02/12 10:33:49;;;;;;;;;;;;;;;;;;5085694;28;1237;-51
2023/02/12 10:36:31;;;;;;;;;;;;;;;;;;5094737;28;1157;-52
2023/02/12 10:39:05;;;;;;;;;;;;;;;;;;5094547;28;914;-48
2023/02/12 10:41:34;;;;;;;;;;;;;;;;;;5094664;28;979;-45
2023/02/12 10:44:01;;;;;;;;;;;;;;;;;;5094545;28;1202;-49
2023/02/12 10:46:30;;;;;;;;;;;;;;;;;;5093327;28;1910;-49
2023/02/12 10:48:58;;;;;;;;;;;;;;;;;;5082853;28;1073;-46
2023/02/12 10:51:37;;;;;;;;;;;;;;;;;;5074027;28;1021;-49
2023/02/12 10:54:23;;;;;;;;;;;;;;;;;;5073715;28;928;-50
2023/02/12 10:56:50;;;;;;;;;;;;;;;;;;5073935;28;1067;-50
2023/02/12 10:59:23;;;;;;;;;;;;;;;;;;5073868;28;1199;-41
2023/02/12 11:01:51;;;;;;;;;;;;;;;;;;5073816;28;1177;-49
2023/02/12 11:04:26;;;;;;;;;;;;;;;;;;5073656;28;1584;-45
2023/02/12 11:07:04;;;;;;;;;;;;;;;;;;5073174;28;1027;-51
2023/02/12 11:09:44;;;;;;;;;;;;;;;;;;5073845;28;1156;-44
2023/02/12 11:12:17;;;;;;;;;;;;;;;;;;5073678;28;1073;-45
2023/02/12 11:14:54;;;;;;;;;;;;;;;;;;5073759;28;991;-49
2023/02/12 11:17:28;;;;;;;;;;;;;;;;;;5073435;28;1022;-42
2023/02/12 11:20:19;;;;;;;;;;;;;;;;;;5072740;28;952;-44
2023/02/12 11:23:00;;;;;;;;;;;;;;;;;;5073619;28;980;-40
2023/02/12 11:25:29;;;;;;;;;;;;;;;;;;5073258;28;1914;-44
2023/02/12 11:28:05;;;;;;;;;;;;;;;;;;5074925;28;1136;-49
2023/02/12 11:30:32;;;;;;;;;;;;;;;;;;5093553;28;1186;-49
2023/02/12 11:33:15;;;;;;;;;;;;;;;;;;5093604;28;1075;-45
2023/02/12 11:35:51;;;;;;;;;;;;;;;;;;5090509;28;1080;-48
2023/02/12 11:38:30;;;;;;;;;;;;;;;;;;5073547;28;1221;-46
2023/02/12 11:41:06;;;;;;;;;;;;;;;;;;5073106;28;1372;-42
2023/02/12 11:43:37;;;;;;;;;;;;;;;;;;5073251;28;904;-45
2023/02/12 11:46:07;;;;;;;;;;;;;;;;;;5074150;28;1969;-49
2023/02/12 11:48:37;;;;;;;;;;;;;;;;;;5073003;28;1237;-48
2023/02/12 11:51:07;;;;;;;;;;;;;;;;;;5073009;28;1306;-43
2023/02/12 11:53:37;;;;;;;;;;;;;;;;;;5072907;28;1114;-49
2023/02/12 11:56:05;;;;;;;;;;;;;;;;;;5072791;28;1168;-47
2023/02/12 11:58:39;;;;;;;;;;;;;;;;;;5085257;28;1003;-50
2023/02/12 12:01:12;;;;;;;;;;;;;;;;;;5086598;28;1315;-46
2023/02/12 12:03:53;;;;;;;;;;;;;;;;;;5086201;28;1269;-49
2023/02/12 12:06:40;;;;;;;;;;;;;;;;;;5092987;28;1898;-43
2023/02/12 12:09:26;;;;;;;;;;;;;;;;;;5091208;28;1083;-45
2023/02/12 12:12:12;;;;;;;;;;;;;;;;;;5083092;28;948;-48
2023/02/12 12:20:50;;;;;;;;;;;;;;;;;;5072407;28;1122;-48
2023/02/12 12:23:49;;;;;;;;;;;;;;;;;;5072351;28;1086;-48
2023/02/12 12:26:27;;;;;;;;;;;;;;;;;;5058493;28;1911;-47
2023/02/12 12:28:57;;;;;;;;;;;;;;;;;;5074791;28;1210;-44
2023/02/12 12:31:31;;;;;;;;;;;;;;;;;;5091114;28;1203;-51
2023/02/12 12:34:03;;;;;;;;;;;;;;;;;;5092021;28;1347;-49
2023/02/12 12:36:47;;;;;;;;;;;;;;;;;;5090160;28;1019;-50
2023/02/12 12:39:35;;;;;;;;;;;;;;;;;;5072158;28;1134;-49
2023/02/12 12:42:21;;;;;;;;;;;;;;;;;;5083220;28;1173;-47
2023/02/12 12:44:57;;;;;;;;;;;;;;;;;;5077346;28;1978;-50
2023/02/12 12:47:30;;;;;;;;;;;;;;;;;;5071895;28;1221;-42
2023/02/12 12:50:17;;;;;;;;;;;;;;;;;;5083408;28;1096;-46
2023/02/12 12:52:58;;;;;;;;;;;;;;;;;;5084007;28;1055;-52
2023/02/12 12:55:36;;;;;;;;;;;;;;;;;;5071726;28;953;-49
2023/02/12 12:58:04;;;;;;;;;;;;;;;;;;5075798;28;1407;-39
2023/02/12 13:00:36;;;;;;;;;;;;;;;;;;5091895;28;906;-49
2023/02/12 13:03:13;;;;;;;;;;;;;;;;;;5084510;28;1392;-51
2023/02/12 13:05:52;;;;;;;;;;;;;;;;;;5086353;28;1929;-49
2023/02/12 13:08:40;;;;;;;;;;;;;;;;;;5071489;28;1001;-47
2023/02/12 13:11:25;;;;;;;;;;;;;;;;;;5071305;28;1027;-46
2023/02/12 13:14:18;;;;;;;;;;;;;;;;;;5083662;28;967;-49
2023/02/12 13:16:48;;;;;;;;;;;;;;;;;;5066119;28;1703;-46
2023/02/12 13:19:47;;;;;;;;;;;;;;;;;;5077135;28;1120;-51
2023/02/12 13:22:27;;;;;;;;;;;;;;;;;;5058477;28;1143;-50
2023/02/12 13:25:03;;;;;;;;;;;;;;;;;;5078876;28;1915;-50
2023/02/12 13:27:33;;;;;;;;;;;;;;;;;;5081768;28;1412;-44
2023/02/12 13:30:17;;;;;;;;;;;;;;;;;;5081665;28;1070;-41
2023/02/12 13:33:02;;;;;;;;;;;;;;;;;;5088274;28;1141;-44
2023/02/12 13:35:30;;;;;;;;;;;;;;;;;;5077313;28;1258;-47
2023/02/12 13:37:58;;;;;;;;;;;;;;;;;;5091097;28;1413;-40
2023/02/12 13:40:26;;;;;;;;;;;;;;;;;;5083609;28;917;-46
2023/02/12 13:43:15;;;;;;;;;;;;;;;;;;5090906;28;1385;-46
2023/02/12 13:45:55;;;;;;;;;;;;;;;;;;5076529;28;1902;-46
2023/02/12 13:48:41;;;;;;;;;;;;;;;;;;5077055;28;1121;-47
2023/02/12 13:51:27;;;;;;;;;;;;;;;;;;5078286;28;1336;-44
2023/02/12 13:53:58;;;;;;;;;;;;;;;;;;5078619;28;1192;-52
2023/02/12 13:56:33;;;;;;;;;;;;;;;;;;5076713;28;1052;-49
2023/02/12 13:59:06;;;;;;;;;;;;;;;;;;5080385;28;1078;-42
2023/02/12 14:01:36;;;;;;;;;;;;;;;;;;5071018;28;1049;-46
2023/02/12 14:04:32;;;;;;;;;;;;;;;;;;5088141;28;1249;-45
2023/02/12 14:07:05;;;;;;;;;;;;;;;;;;5075097;28;1981;-43
2023/02/12 14:09:37;;;;;;;;;;;;;;;;;;5089561;28;1037;-51
2023/02/12 14:12:05;;;;;;;;;;;;;;;;;;5090904;28;1278;-40
2023/02/12 14:14:53;;;;;;;;;;;;;;;;;;5075235;28;980;-44
2023/02/12 14:17:31;;;;;;;;;;;;;;;;;;5070757;28;998;-49
2023/02/12 14:20:17;;;;;;;;;;;;;;;;;;5072371;28;1252;-45
2023/02/12 14:22:47;;;;;;;;;;;;;;;;;;5086935;28;1774;-48
2023/02/12 14:25:14;;;;;;;;;;;;;;;;;;5079243;28;1979;-49
2023/02/12 14:27:41;;;;;;;;;;;;;;;;;;5080592;28;1151;-44
2023/02/12 14:30:09;;;;;;;;;;;;;;;;;;5077295;28;1204;-49
2023/02/12 14:32:45;;;;;;;;;;;;;;;;;;5079582;28;1166;-49
2023/02/12 14:35:31;;;;;;;;;;;;;;;;;;5098039;28;1247;-44
2023/02/12 14:38:00;;;;;;;;;;;;;;;;;;5084598;28;1052;-46
2023/02/12 14:40:33;;;;;;;;;;;;;;;;;;5071647;28;956;-43
2023/02/12 14:43:01;;;;;;;;;;;;;;;;;;5074669;28;989;-48
2023/02/12 14:45:30;;;;;;;;;;;;;;;;;;5070637;28;1922;-48
2023/02/12 14:47:58;;;;;;;;;;;;;;;;;;5075223;28;998;-43
2023/02/12 14:50:27;;;;;;;;;;;;;;;;;;5087019;28;1231;-45
2023/02/12 14:52:59;;;;;;;;;;;;;;;;;;5084691;28;1270;-52
2023/02/12 14:55:33;;;;;;;;;;;;;;;;;;5076066;28;1386;-51
2023/02/12 14:58:02;;;;;;;;;;;;;;;;;;5086157;28;1147;-49
2023/02/12 15:00:38;;;;;;;;;;;;;;;;;;5081301;28;1603;-45
2023/02/12 15:03:21;;;;;;;;;;;;;;;;;;5092845;28;1417;-46
2023/02/12 15:05:51;;;;;;;;;;;;;;;;;;5075940;28;1910;-46
2023/02/12 15:08:21;;;;;;;;;;;;;;;;;;5081728;28;1027;-48
2023/02/12 15:10:51;;;;;;;;;;;;;;;;;;5084550;28;1109;-50
2023/02/12 15:13:21;;;;;;;;;;;;;;;;;;5089494;28;1066;-44
2023/02/12 15:15:53;;;;;;;;;;;;;;;;;;5079721;28;1315;-45
2023/02/12 15:18:25;;;;;;;;;;;;;;;;;;5085762;28;1072;-43
2023/02/12 15:21:18;;;;;;;;;;;;;;;;;;5085002;28;904;-43
2023/02/12 15:23:46;;;;;;;;;;;;;;;;;;5084120;28;1830;-45
2023/02/12 15:26:18;;;;;;;;;;;;;;;;;;5081491;28;1916;-44
2023/02/12 15:28:46;;;;;;;;;;;;;;;;;;5078582;28;898;-47
2023/02/12 15:31:21;;;;;;;;;;;;;;;;;;5086334;28;1041;-43
2023/02/12 15:33:50;;;;;;;;;;;;;;;;;;5079972;28;1198;-48
2023/02/12 15:36:19;;;;;;;;;;;;;;;;;;5081772;28;1031;-43
2023/02/12 15:38:57;;;;;;;;;;;;;;;;;;5085290;28;1094;-46
2023/02/12 15:41:34;;;;;;;;;;;;;;;;;;5087165;28;1055;-46
2023/02/12 15:44:16;;;;;;;;;;;;;;;;;;5082416;28;1261;-50
2023/02/12 15:46:59;;;;;;;;;;;;;;;;;;5085378;28;1915;-48
2023/02/12 15:49:27;;;;;;;;;;;;;;;;;;5082038;28;1165;-48
2023/02/12 15:51:55;;;;;;;;;;;;;;;;;;5087792;28;967;-48
2023/02/12 15:54:22;;;;;;;;;;;;;;;;;;5074048;28;1081;-52
2023/02/12 15:56:49;;;;;;;;;;;;;;;;;;5084245;28;1171;-52
2023/02/12 15:59:21;;;;;;;;;;;;;;;;;;5085999;28;1125;-47
2023/02/12 16:01:59;;;;;;;;;;;;;;;;;;5075294;28;1021;-51
2023/02/12 16:04:29;;;;;;;;;;;;;;;;;;5076655;28;1550;-50
2023/02/12 16:06:56;;;;;;;;;;;;;;;;;;5076308;28;1988;-47
2023/02/12 16:09:29;;;;;;;;;;;;;;;;;;5090740;28;1064;-49
2023/02/12 16:11:58;;;;;;;;;;;;;;;;;;5084886;28;928;-44
2023/02/12 16:14:27;;;;;;;;;;;;;;;;;;5080411;28;915;-47
2023/02/12 16:16:55;;;;;;;;;;;;;;;;;;5082350;28;988;-49
2023/02/12 16:19:32;;;;;;;;;;;;;;;;;;5075388;28;1051;-45
2023/02/12 16:22:13;;;;;;;;;;;;;;;;;;5085810;28;1136;-49
2023/02/12 16:24:46;;;;;;;;;;;;;;;;;;5079615;28;1341;-51
2023/02/12 16:27:13;;;;;;;;;;;;;;;;;;5080481;28;1917;-48
2023/02/12 16:29:52;;;;;;;;;;;;;;;;;;5078341;28;914;-46
2023/02/12 16:32:25;;;;;;;;;;;;;;;;;;5084318;28;1027;-47
2023/02/12 16:35:01;;;;;;;;;;;;;;;;;;5083912;28;1336;-50
2023/02/12 16:37:37;;;;;;;;;;;;;;;;;;5080399;28;976;-44
2023/02/12 16:40:08;;;;;;;;;;;;;;;;;;5084020;28;1318;-47
2023/02/12 16:42:35;;;;;;;;;;;;;;;;;;5078739;28;1022;-47
2023/02/12 16:45:32;;;;;;;;;;;;;;;;;;5083653;28;1174;-45
2023/02/12 16:48:04;;;;;;;;;;;;;;;;;;5078134;28;2469;-47
2023/02/12 16:50:33;;;;;;;;;;;;;;;;;;5083200;28;1174;-50
2023/02/12 16:53:02;;;;;;;;;;;;;;;;;;5082933;28;1083;-45
2023/02/12 16:55:29;;;;;;;;;;;;;;;;;;5076894;28;980;-49
2023/02/12 16:57:56;;;;;;;;;;;;;;;;;;5086758;28;1176;-38
2023/02/12 17:00:24;;;;;;;;;;;;;;;;;;5090750;28;1182;-48
2023/02/12 17:02:55;;;;;;;;;;;;;;;;;;5083093;28;1684;-46
2023/02/12 17:05:22;;;;;;;;;;;;;;;;;;5082692;28;1317;-47
2023/02/12 17:07:49;;;;;;;;;;;;;;;;;;5080498;28;1968;-52
2023/02/12 17:10:16;;;;;;;;;;;;;;;;;;5088399;28;971;-48
2023/02/12 17:12:48;;;;;;;;;;;;;;;;;;5084297;28;9864;-48
2023/02/12 17:15:18;;;;;;;;;;;;;;;;;;5074311;28;1326;-47
2023/02/12 17:17:46;;;;;;;;;;;;;;;;;;5085014;28;944;-42
2023/02/12 17:20:13;;;;;;;;;;;;;;;;;;5077663;28;1114;-44
2023/02/12 17:22:44;;;;;;;;;;;;;;;;;;5071506;28;1144;-47
2023/02/12 17:25:12;;;;;;;;;;;;;;;;;;5078577;28;1158;-46
2023/02/12 17:27:39;;;;;;;;;;;;;;;;;;5082709;28;1975;-43
2023/02/12 17:30:07;;;;;;;;;;;;;;;;;;5081775;28;1014;-46
2023/02/12 17:32:36;;;;;;;;;;;;;;;;;;5081186;28;995;-48
2023/02/12 17:35:06;;;;;;;;;;;;;;;;;;5077191;28;1192;-47
2023/02/12 17:37:33;;;;;;;;;;;;;;;;;;5076863;28;987;-45
2023/02/12 17:40:00;;;;;;;;;;;;;;;;;;5077862;28;1302;-46
2023/02/12 17:42:27;;;;;;;;;;;;;;;;;;5084431;28;1021;-47
2023/02/12 17:44:55;;;;;;;;;;;;;;;;;;5077956;28;1025;-45
2023/02/12 17:47:22;;;;;;;;;;;;;;;;;;5082036;28;1994;-48